createdAt,value
2018-04-25T00:02:15.080Z,13.70
2018-04-25T00:04:42.694Z,13.80
2018-04-25T00:07:10.144Z,13.80
2018-04-25T00:09:37.817Z,13.80
2018-04-25T00:12:05.291Z,13.80
2018-04-25T00:14:32.732Z,13.80
2018-04-25T00:17:00.225Z,13.80
2018-04-25T00:19:27.704Z,13.80
2018-04-25T00:21:55.191Z,13.80
2018-04-25T00:24:23.455Z,13.80
2018-04-25T00:26:51.093Z,13.80
2018-04-25T00:29:18.579Z,13.80
2018-04-25T00:31:46.077Z,13.80
2018-04-25T00:34:13.524Z,13.80
2018-04-25T00:36:40.977Z,13.80
2018-04-25T00:39:21.088Z,13.80
2018-04-25T00:41:48.547Z,13.80
2018-04-25T00:44:16.027Z,13.80
2018-04-25T00:46:43.968Z,13.80
2018-04-25T00:49:11.460Z,13.80
2018-04-25T00:51:39.703Z,13.70
2018-04-25T00:54:07.223Z,13.70
2018-04-25T00:56:34.795Z,13.70
2018-04-25T00:59:02.281Z,13.70
2018-04-25T01:01:29.732Z,13.70
2018-04-25T01:03:57.258Z,13.70
2018-04-25T01:06:24.802Z,13.70
2018-04-25T01:08:53.056Z,13.70
2018-04-25T01:11:21.338Z,13.70
2018-04-25T01:14:00.654Z,13.60
2018-04-25T01:16:28.166Z,13.70
2018-04-25T01:18:55.708Z,13.70
2018-04-25T01:21:23.161Z,13.70
2018-04-25T01:23:50.709Z,13.60
2018-04-25T01:26:18.970Z,13.60
2018-04-25T01:28:56.095Z,13.60
2018-04-25T01:31:30.147Z,13.60
2018-04-25T01:37:06.656Z,13.50
2018-04-25T01:39:50.818Z,13.50
2018-04-25T01:42:24.333Z,13.50
2018-04-25T01:44:52.560Z,13.50
2018-04-25T01:47:34.368Z,13.50
2018-04-25T01:50:11.745Z,13.50
2018-04-25T01:52:51.144Z,13.50
2018-04-25T01:55:30.472Z,13.50
2018-04-25T01:58:09.736Z,13.50
2018-04-25T02:00:49.094Z,13.50
2018-04-25T02:03:17.167Z,13.50
2018-04-25T02:05:44.638Z,13.50
2018-04-25T02:08:12.110Z,13.50
2018-04-25T02:10:39.731Z,13.50
2018-04-25T02:13:07.205Z,13.50
2018-04-25T02:15:34.680Z,13.50
2018-04-25T02:18:02.137Z,13.60
2018-04-25T02:20:29.596Z,13.60
2018-04-25T02:22:57.051Z,13.60
2018-04-25T02:25:24.533Z,13.60
2018-04-25T02:27:52.754Z,13.60
2018-04-25T02:30:20.306Z,13.60
2018-04-25T02:33:05.691Z,13.60
2018-04-25T02:35:33.185Z,13.60
2018-04-25T02:38:00.636Z,13.60
2018-04-25T02:40:28.148Z,13.60
2018-04-25T02:42:59.466Z,13.60
2018-04-25T02:45:27.680Z,13.60
2018-04-25T02:47:55.725Z,13.60
2018-04-25T02:50:43.029Z,13.60
2018-04-25T02:53:11.317Z,13.60
2018-04-25T02:55:44.843Z,13.60
2018-04-25T02:58:12.436Z,13.60
2018-04-25T03:00:39.903Z,13.60
2018-04-25T03:03:07.385Z,13.60
2018-04-25T03:05:35.620Z,13.50
2018-04-25T03:08:03.109Z,13.50
2018-04-25T03:10:31.357Z,13.50
2018-04-25T03:12:59.034Z,13.50
2018-04-25T03:15:26.481Z,13.50
2018-04-25T03:17:54.032Z,13.50
2018-04-25T03:23:14.363Z,13.50
2018-04-25T03:25:41.817Z,13.50
2018-04-25T03:28:09.271Z,13.50
2018-04-25T03:33:09.493Z,13.50
2018-04-25T03:35:36.960Z,13.40
2018-04-25T03:38:04.439Z,13.40
2018-04-25T03:40:31.899Z,13.40
2018-04-25T03:42:59.396Z,13.40
2018-04-25T03:45:26.936Z,13.40
2018-04-25T03:47:55.185Z,13.40
2018-04-25T03:50:22.746Z,13.40
2018-04-25T03:52:50.204Z,13.40
2018-04-25T03:55:17.795Z,13.40
2018-04-25T03:57:46.027Z,13.40
2018-04-25T04:00:13.628Z,13.40
2018-04-25T04:02:41.881Z,13.40
2018-04-25T04:08:03.337Z,13.40
2018-04-25T04:10:31.600Z,13.40
2018-04-25T04:12:59.065Z,13.40
2018-04-25T04:15:26.544Z,13.40
2018-04-25T04:17:54.226Z,13.40
2018-04-25T04:20:21.780Z,13.40
2018-04-25T04:22:49.325Z,13.40
2018-04-25T04:25:16.851Z,13.40
2018-04-25T04:27:44.385Z,13.40
2018-04-25T04:30:23.099Z,13.40
2018-04-25T04:32:50.729Z,13.40
2018-04-25T04:35:19.999Z,13.40
2018-04-25T04:37:47.575Z,13.40
2018-04-25T04:40:15.907Z,13.40
2018-04-25T04:42:46.175Z,13.40
2018-04-25T04:45:14.496Z,13.40
2018-04-25T04:47:42.244Z,13.40
2018-04-25T04:50:09.777Z,13.40
2018-04-25T04:52:38.513Z,13.40
2018-04-25T04:55:07.013Z,13.40
2018-04-25T04:57:34.529Z,13.40
2018-04-25T05:00:02.076Z,13.40
2018-04-25T05:02:29.612Z,13.40
2018-04-25T05:04:57.244Z,13.40
2018-04-25T05:07:24.780Z,13.40
2018-04-25T05:09:53.586Z,13.40
2018-04-25T05:12:21.144Z,13.40
2018-04-25T05:14:48.664Z,13.40
2018-04-25T05:17:16.227Z,13.50
2018-04-25T05:19:43.801Z,13.50
2018-04-25T05:22:11.341Z,13.50
2018-04-25T05:24:38.942Z,13.50
2018-04-25T05:27:07.200Z,13.60
2018-04-25T05:29:34.714Z,13.50
2018-04-25T05:32:03.065Z,13.60
2018-04-25T05:34:30.702Z,13.60
2018-04-25T05:36:58.525Z,13.60
2018-04-25T05:39:26.127Z,13.60
2018-04-25T05:41:53.773Z,13.60
2018-04-25T05:44:21.368Z,13.60
2018-04-25T05:46:48.932Z,13.60
2018-04-25T05:49:20.555Z,13.60
2018-04-25T05:51:48.261Z,13.60
2018-04-25T05:54:15.849Z,13.60
2018-04-25T05:56:43.533Z,13.60
2018-04-25T05:59:11.135Z,13.60
2018-04-25T06:01:38.686Z,13.60
2018-04-25T06:04:06.278Z,13.60
2018-04-25T06:06:35.476Z,13.70
2018-04-25T06:09:03.075Z,13.70
2018-04-25T06:11:31.225Z,13.70
2018-04-25T06:13:58.771Z,13.80
2018-04-25T06:16:26.276Z,13.90
2018-04-25T06:18:53.862Z,13.90
2018-04-25T06:21:21.472Z,13.90
2018-04-25T06:23:49.778Z,13.90
2018-04-25T06:26:17.298Z,13.80
2018-04-25T06:28:48.936Z,13.80
2018-04-25T06:31:16.450Z,13.80
2018-04-25T06:33:50.746Z,13.80
2018-04-25T06:36:20.237Z,13.70
2018-04-25T06:38:47.779Z,13.70
2018-04-25T06:41:15.422Z,13.70
2018-04-25T06:43:43.041Z,13.70
2018-04-25T06:46:10.601Z,13.70
2018-04-25T06:48:38.848Z,13.70
2018-04-25T06:51:06.341Z,13.60
2018-04-25T06:53:34.035Z,13.60
2018-04-25T06:56:01.506Z,13.50
2018-04-25T06:58:28.980Z,13.50
2018-04-25T07:06:45.429Z,13.40
2018-04-25T07:09:13.303Z,13.30
2018-04-25T07:11:41.625Z,13.20
2018-04-25T07:14:09.223Z,13.20
2018-04-25T07:16:36.626Z,13.20
2018-04-25T07:19:05.034Z,13.10
2018-04-25T07:21:32.557Z,13.10
2018-04-25T07:24:00.029Z,13.10
2018-04-25T07:26:27.640Z,13.10
2018-04-25T07:28:55.094Z,13.00
2018-04-25T07:31:22.635Z,13.00
2018-04-25T07:33:50.103Z,13.00
2018-04-25T07:36:17.629Z,12.90
2018-04-25T07:38:45.132Z,12.90
2018-04-25T07:41:12.714Z,12.80
2018-04-25T07:43:40.981Z,12.80
2018-04-25T07:46:08.521Z,12.70
2018-04-25T07:48:35.989Z,12.70
2018-04-25T07:51:14.512Z,12.70
2018-04-25T07:53:42.030Z,12.70
2018-04-25T07:56:09.576Z,12.70
2018-04-25T07:58:37.142Z,12.70
2018-04-25T08:01:04.642Z,12.70
2018-04-25T08:03:32.282Z,12.80
2018-04-25T08:05:59.803Z,12.80
2018-04-25T08:08:32.361Z,12.80
2018-04-25T08:10:59.832Z,12.90
2018-04-25T08:13:40.038Z,13.30
2018-04-25T08:16:19.954Z,13.30
2018-04-25T08:18:59.444Z,13.50
2018-04-25T08:21:39.713Z,13.60
2018-04-25T08:24:07.267Z,13.80
2018-04-25T08:26:34.761Z,14.00
2018-04-25T08:29:03.068Z,14.20
2018-04-25T08:31:30.664Z,14.20
2018-04-25T08:33:58.157Z,14.20
2018-04-25T08:36:25.637Z,14.10
2018-04-25T08:38:53.203Z,14.20
2018-04-25T08:41:20.706Z,14.20
2018-04-25T08:43:48.206Z,14.20
2018-04-25T08:46:15.716Z,14.40
2018-04-25T08:48:45.398Z,14.40
2018-04-25T08:51:12.872Z,14.40
2018-04-25T08:53:40.366Z,14.50
2018-04-25T08:56:07.885Z,14.60
2018-04-25T08:58:35.380Z,14.60
2018-04-25T09:01:03.678Z,14.70
2018-04-25T09:03:31.183Z,14.60
2018-04-25T09:05:59.426Z,14.80
2018-04-25T09:08:26.997Z,14.90
2018-04-25T09:10:54.546Z,15.10
2018-04-25T09:13:22.128Z,15.20
2018-04-25T09:15:49.711Z,15.40
2018-04-25T09:23:53.128Z,16.10
2018-04-25T09:26:26.784Z,16.20
2018-04-25T09:28:54.317Z,16.20
2018-04-25T09:31:21.884Z,16.30
2018-04-25T09:33:53.319Z,16.40
2018-04-25T09:36:20.827Z,16.30
2018-04-25T09:38:48.354Z,16.20
2018-04-25T09:41:17.977Z,16.20
2018-04-25T09:43:46.252Z,16.10
2018-04-25T09:46:14.569Z,16.10
2018-04-25T09:48:42.273Z,16.00
2018-04-25T09:51:19.620Z,16.20
2018-04-25T09:53:47.185Z,16.40
2018-04-25T09:56:14.696Z,16.50
2018-04-25T09:58:42.949Z,16.80
2018-04-25T10:01:10.487Z,16.80
2018-04-25T10:03:45.507Z,16.90
2018-04-25T10:06:13.384Z,17.00
2018-04-25T10:08:40.872Z,17.20
2018-04-25T10:11:08.350Z,17.20
2018-04-25T10:13:36.803Z,17.00
2018-04-25T10:16:05.718Z,17.00
2018-04-25T10:18:34.139Z,16.50
2018-04-25T10:21:01.749Z,16.50
2018-04-25T10:23:30.265Z,16.10
2018-04-25T10:25:59.201Z,16.10
2018-04-25T10:28:33.782Z,16.20
2018-04-25T10:31:01.329Z,16.30
2018-04-25T10:33:29.646Z,16.50
2018-04-25T10:35:57.204Z,16.60
2018-04-25T10:38:24.713Z,16.50
2018-04-25T10:40:53.001Z,16.50
2018-04-25T10:46:02.860Z,16.50
2018-04-25T10:48:41.177Z,16.80
2018-04-25T10:51:09.980Z,16.80
2018-04-25T10:53:38.382Z,17.10
2018-04-25T10:59:05.517Z,17.30
2018-04-25T11:01:36.406Z,17.50
2018-04-25T11:04:08.002Z,17.40
2018-04-25T11:06:42.075Z,17.00
2018-04-25T11:09:12.213Z,17.00
2018-04-25T11:11:42.483Z,16.70
2018-04-25T11:14:12.033Z,16.70
2018-04-25T11:16:39.755Z,16.70
2018-04-25T11:19:07.467Z,16.60
2018-04-25T11:21:48.405Z,16.50
2018-04-25T11:24:38.029Z,16.50
2018-04-25T11:27:09.008Z,16.40
2018-04-25T11:29:36.561Z,16.30
2018-04-25T11:32:04.169Z,16.20
2018-04-25T11:34:31.806Z,16.20
2018-04-25T11:36:59.668Z,16.20
2018-04-25T11:39:27.311Z,16.40
2018-04-25T11:41:57.774Z,16.50
2018-04-25T11:44:25.985Z,16.80
2018-04-25T11:46:58.237Z,16.90
2018-04-25T11:49:44.583Z,17.20
2018-04-25T11:52:12.311Z,17.20
2018-04-25T11:54:40.145Z,17.40
2018-04-25T11:57:18.680Z,17.40
2018-04-25T11:59:48.835Z,17.30
2018-04-25T12:02:19.078Z,17.30
2018-04-25T12:04:47.537Z,17.20
2018-04-25T12:07:21.911Z,17.20
2018-04-25T12:12:57.827Z,17.00
2018-04-25T12:15:26.213Z,16.80
2018-04-25T12:29:28.997Z,17.30
2018-04-25T12:34:57.332Z,17.60
2018-04-25T12:37:25.053Z,17.90
2018-04-25T12:39:55.146Z,18.20
2018-04-25T12:42:31.924Z,18.50
2018-04-25T12:53:44.113Z,18.10
2018-04-25T12:56:34.104Z,18.10
2018-04-25T12:59:01.940Z,18.00
2018-04-25T13:01:32.236Z,17.90
2018-04-25T13:04:03.530Z,17.80
2018-04-25T13:06:31.266Z,17.80
2018-04-25T13:09:02.228Z,17.70
2018-04-25T13:11:34.590Z,17.70
2018-04-25T13:20:09.715Z,17.40
2018-04-25T13:22:39.395Z,17.40
2018-04-25T13:25:11.270Z,17.50
2018-04-25T13:27:38.933Z,17.70
2018-04-25T13:41:40.054Z,18.10
2018-04-25T13:59:04.016Z,18.50
2018-04-25T14:01:31.953Z,18.60
2018-04-25T18:00:23.566Z,14.40
2018-04-25T18:46:20.811Z,13.30
2018-04-25T18:48:48.459Z,13.20
2018-04-25T19:00:04.096Z,12.80
2018-04-25T19:08:20.725Z,12.50
2018-04-25T19:11:22.013Z,12.50
2018-04-25T19:13:51.429Z,12.50
2018-04-25T19:16:18.988Z,12.30
2018-04-25T19:18:51.542Z,12.30
2018-04-25T19:21:19.063Z,12.20
2018-04-25T19:23:47.245Z,12.20
2018-04-25T19:26:14.767Z,12.20
2018-04-25T19:28:42.384Z,12.20
2018-04-25T19:31:10.741Z,12.10
2018-04-25T19:33:38.308Z,12.00
2018-04-25T19:36:07.493Z,11.90
2018-04-25T19:41:38.575Z,11.80
2018-04-25T19:44:06.919Z,11.70
2018-04-25T19:46:35.256Z,11.70
2018-04-25T20:06:08.168Z,11.20
2018-04-25T20:08:35.751Z,11.20
2018-04-25T20:11:03.296Z,11.10
2018-04-25T20:13:34.221Z,11.10
2018-04-25T20:16:09.467Z,11.00
2018-04-25T20:21:39.390Z,10.90
2018-04-25T20:24:06.912Z,10.90
2018-04-25T20:26:34.433Z,10.90
2018-04-25T20:29:02.051Z,10.80
2018-04-25T20:31:29.561Z,10.70
2018-04-25T20:33:57.148Z,10.70
2018-04-25T20:36:24.716Z,10.60
2018-04-25T20:38:52.274Z,10.60
2018-04-25T20:41:19.780Z,10.50
2018-04-25T20:43:47.603Z,10.50
2018-04-25T20:46:15.828Z,10.40
2018-04-25T21:00:34.956Z,10.00
2018-04-25T21:03:02.550Z,10.00
2018-04-25T21:05:30.094Z,9.90
2018-04-25T21:26:04.968Z,10.00
2018-04-25T21:28:35.340Z,10.00
